createdAt,value
2022-12-18T00:01:18.333Z,100942.41
2022-12-18T00:03:46.684Z,100984.13
2022-12-18T00:06:14.820Z,100988.38
2022-12-18T00:08:42.580Z,100973.50
2022-12-18T00:11:12.753Z,100972.78
2022-12-18T00:13:41.261Z,100974.44
2022-12-18T00:16:10.774Z,100977.84
2022-12-18T00:18:40.739Z,100990.72
2022-12-18T00:21:12.344Z,100986.38
2022-12-18T00:23:41.158Z,100990.56
2022-12-18T00:26:10.775Z,101007.13
2022-12-18T00:28:38.635Z,100957.63
2022-12-18T00:31:07.262Z,100983.53
2022-12-18T00:33:35.272Z,100998.53
2022-12-18T00:36:04.719Z,101001.09
2022-12-18T00:38:32.465Z,100993.19
2022-12-18T00:41:00.163Z,101001.97
2022-12-18T00:43:26.992Z,100987.09
2022-12-18T00:45:54.825Z,100992.41
2022-12-18T00:48:22.780Z,100990.56
2022-12-18T00:50:50.504Z,100995.72
2022-12-18T00:53:19.782Z,100987.78
2022-12-18T00:55:47.521Z,100983.44
2022-12-18T00:58:15.875Z,100986.94
2022-12-18T01:00:43.643Z,100986.13
2022-12-18T01:03:11.759Z,100995.47
2022-12-18T01:05:41.057Z,100991.19
2022-12-18T01:08:08.815Z,100992.16
2022-12-18T01:10:37.860Z,100982.84
2022-12-18T01:13:05.683Z,100981.06
2022-12-18T01:15:33.305Z,100979.34
2022-12-18T01:18:01.073Z,100980.06
2022-12-18T01:20:28.700Z,100980.06
2022-12-18T01:22:56.506Z,100995.53
2022-12-18T01:25:24.161Z,100995.63
2022-12-18T01:27:53.330Z,100993.13
2022-12-18T01:30:20.972Z,101004.25
2022-12-18T01:32:48.869Z,100999.09
2022-12-18T01:35:16.629Z,100999.09
2022-12-18T01:37:44.422Z,101000.63
2022-12-18T01:40:12.433Z,100990.69
2022-12-18T01:42:41.281Z,101001.88
2022-12-18T01:45:24.246Z,101001.78
2022-12-18T01:47:52.748Z,100962.72
2022-12-18T01:50:22.180Z,101009.53
2022-12-18T01:52:51.782Z,100990.44
2022-12-18T01:55:21.441Z,101002.59
2022-12-18T01:57:49.341Z,100992.31
2022-12-18T02:00:19.960Z,100987.97
2022-12-18T02:02:48.163Z,100977.56
2022-12-18T02:05:19.609Z,100985.78
2022-12-18T02:07:51.806Z,100991.75
2022-12-18T02:10:22.328Z,100989.06
2022-12-18T02:12:53.701Z,101004.78
2022-12-18T02:15:26.103Z,100999.69
2022-12-18T02:17:57.307Z,101000.75
2022-12-18T02:20:26.983Z,100959.34
2022-12-18T02:23:12.002Z,101003.66
2022-12-18T02:26:03.681Z,100997.69
2022-12-18T02:28:34.127Z,100996.91
2022-12-18T02:31:02.998Z,100988.34
2022-12-18T02:33:30.861Z,101001.31
2022-12-18T02:35:58.815Z,100989.41
2022-12-18T02:38:26.578Z,100981.53
2022-12-18T02:40:54.379Z,100969.59
2022-12-18T02:43:22.266Z,100975.72
2022-12-18T02:45:52.979Z,100940.31
2022-12-18T02:48:20.941Z,100954.16
2022-12-18T02:50:52.906Z,100899.41
2022-12-18T02:53:24.003Z,100976.53
2022-12-18T02:55:56.664Z,100979.09
2022-12-18T02:58:29.305Z,100798.69
2022-12-18T03:01:01.051Z,100839.34
2022-12-18T03:03:31.207Z,100854.06
2022-12-18T03:06:01.066Z,100793.44
2022-12-18T03:08:30.001Z,100968.19
2022-12-18T03:10:59.820Z,100513.13
2022-12-18T03:13:32.977Z,100895.53
2022-12-18T03:16:02.319Z,100843.63
2022-12-18T03:18:32.541Z,100908.91
2022-12-18T03:21:01.383Z,100560.88
2022-12-18T03:23:31.623Z,100984.66
2022-12-18T03:26:05.809Z,100977.97
2022-12-18T03:28:36.283Z,100963.50
2022-12-18T03:31:05.690Z,100965.34
2022-12-18T03:33:34.894Z,100565.81
2022-12-18T03:36:02.813Z,100709.81
2022-12-18T03:38:30.933Z,100904.38
2022-12-18T03:41:01.494Z,100881.41
2022-12-18T03:43:37.082Z,100657.25
2022-12-18T03:46:09.148Z,100796.31
2022-12-18T03:48:41.806Z,100564.19
2022-12-18T03:51:11.319Z,100592.38
2022-12-18T03:53:41.947Z,100720.06
2022-12-18T03:56:10.395Z,100826.72
2022-12-18T03:58:39.334Z,100884.41
2022-12-18T04:01:09.156Z,100766.09
2022-12-18T04:03:37.158Z,100978.44
2022-12-18T04:06:05.160Z,101001.75
2022-12-18T04:08:33.189Z,100972.31
2022-12-18T04:11:01.595Z,100706.25
2022-12-18T04:13:31.345Z,100988.47
2022-12-18T04:15:59.541Z,100938.69
2022-12-18T04:18:29.000Z,100424.00
2022-12-18T04:20:57.192Z,100565.53
2022-12-18T04:23:25.039Z,100793.81
2022-12-18T04:25:52.917Z,100672.72
2022-12-18T04:28:21.123Z,100955.34
2022-12-18T04:30:51.013Z,100947.50
2022-12-18T04:33:18.993Z,100702.34
2022-12-18T04:35:48.460Z,100821.06
2022-12-18T04:38:16.526Z,100792.09
2022-12-18T04:40:44.405Z,100680.59
2022-12-18T04:43:12.400Z,100721.19
2022-12-18T04:45:41.152Z,100893.31
2022-12-18T04:48:09.081Z,100853.38
2022-12-18T04:50:37.212Z,100808.63
2022-12-18T04:53:06.478Z,101098.75
2022-12-18T04:55:34.528Z,101054.81
2022-12-18T04:58:02.380Z,100821.63
2022-12-18T05:00:30.325Z,100571.00
2022-12-18T05:02:58.269Z,100929.28
2022-12-18T05:05:26.284Z,100799.97
2022-12-18T05:07:54.235Z,100919.44
2022-12-18T05:10:23.692Z,101076.41
2022-12-18T05:13:03.641Z,100707.06
2022-12-18T05:15:31.606Z,100882.97
2022-12-18T05:17:59.682Z,100674.31
2022-12-18T05:20:28.148Z,100924.59
2022-12-18T05:22:56.468Z,100607.47
2022-12-18T05:25:25.993Z,100808.53
2022-12-18T05:27:54.035Z,100785.47
2022-12-18T05:30:21.959Z,100699.88
2022-12-18T05:32:49.837Z,100595.47
2022-12-18T05:35:17.801Z,100775.22
2022-12-18T05:37:45.684Z,100839.88
2022-12-18T05:40:14.010Z,100592.06
2022-12-18T05:42:43.337Z,100694.03
2022-12-18T05:45:12.105Z,100665.53
2022-12-18T05:47:39.967Z,100739.69
2022-12-18T05:50:09.627Z,100875.81
2022-12-18T05:52:37.527Z,100746.25
2022-12-18T05:55:06.147Z,100693.16
2022-12-18T05:57:34.013Z,100790.28
2022-12-18T06:00:03.991Z,100606.22
2022-12-18T06:02:32.078Z,100826.31
2022-12-18T06:04:59.951Z,100756.31
2022-12-18T06:07:27.864Z,100667.66
2022-12-18T06:09:55.782Z,100593.50
2022-12-18T06:12:23.587Z,100737.34
2022-12-18T06:14:51.525Z,100940.94
2022-12-18T06:17:20.873Z,100588.91
2022-12-18T06:19:49.056Z,100886.03
2022-12-18T06:22:17.953Z,100999.50
2022-12-18T06:24:45.793Z,100679.69
2022-12-18T06:27:13.773Z,100766.00
2022-12-18T06:29:41.607Z,101014.78
2022-12-18T06:32:09.477Z,100869.34
2022-12-18T06:34:40.842Z,101031.75
2022-12-18T06:37:08.699Z,100968.50
2022-12-18T06:39:36.604Z,100634.94
2022-12-18T06:42:05.337Z,100921.50
2022-12-18T06:44:33.338Z,100748.59
2022-12-18T06:47:01.289Z,100810.84
2022-12-18T06:49:30.718Z,100605.38
2022-12-18T06:52:00.415Z,100797.81
2022-12-18T06:54:30.432Z,100727.81
2022-12-18T06:56:58.397Z,100929.38
2022-12-18T06:59:26.248Z,100655.53
2022-12-18T07:02:05.711Z,100852.28
2022-12-18T07:04:33.676Z,100752.31
2022-12-18T07:07:02.954Z,101009.31
2022-12-18T07:09:30.799Z,100528.28
2022-12-18T07:11:58.675Z,100888.00
2022-12-18T07:14:27.262Z,100937.34
2022-12-18T07:16:55.181Z,100666.75
2022-12-18T07:19:23.019Z,100809.31
2022-12-18T07:21:52.119Z,100900.06
2022-12-18T07:24:21.535Z,100479.69
2022-12-18T07:26:49.398Z,100989.91
2022-12-18T07:29:17.190Z,100770.34
2022-12-18T07:31:45.415Z,100739.16
2022-12-18T07:34:13.630Z,100669.22
2022-12-18T07:36:52.673Z,100668.75
2022-12-18T07:39:21.931Z,100881.97
2022-12-18T07:42:09.710Z,100908.06
2022-12-18T07:44:37.668Z,100819.38
2022-12-18T07:47:10.552Z,100717.75
2022-12-18T07:49:40.020Z,100682.75
2022-12-18T07:52:07.819Z,100648.50
2022-12-18T07:54:37.335Z,100807.66
2022-12-18T07:57:09.934Z,100780.78
2022-12-18T07:59:49.773Z,100775.47
2022-12-18T08:02:17.867Z,100662.25
2022-12-18T08:04:45.880Z,100810.13
2022-12-18T08:07:13.795Z,100518.44
2022-12-18T08:09:43.123Z,100923.47
2022-12-18T08:12:11.024Z,100756.75
2022-12-18T08:14:38.962Z,100787.97
2022-12-18T08:17:06.876Z,100766.00
2022-12-18T08:19:34.695Z,101046.09
2022-12-18T08:22:02.549Z,100825.69
2022-12-18T08:24:30.609Z,100622.03
2022-12-18T08:27:27.728Z,100824.31
2022-12-18T08:29:47.849Z,100732.59
2022-12-18T08:32:15.848Z,100791.44
2022-12-18T08:34:43.826Z,100766.38
2022-12-18T08:37:11.674Z,100738.06
2022-12-18T08:39:39.474Z,100677.47
2022-12-18T08:42:34.552Z,100551.94
2022-12-18T08:45:02.326Z,100871.56
2022-12-18T08:47:30.097Z,100743.91
2022-12-18T08:49:57.962Z,100733.19
2022-12-18T08:53:10.385Z,100821.13
2022-12-18T08:55:38.239Z,100695.72
2022-12-18T08:58:12.392Z,100654.25
2022-12-18T09:00:40.495Z,100422.81
2022-12-18T09:03:13.241Z,100764.84
2022-12-18T09:05:41.230Z,100722.66
2022-12-18T09:08:09.112Z,100666.19
2022-12-18T09:10:43.468Z,100613.81
2022-12-18T09:13:13.848Z,100647.13
2022-12-18T09:15:43.889Z,100477.69
2022-12-18T09:18:11.873Z,100815.38
2022-12-18T09:20:39.943Z,100521.16
2022-12-18T09:23:07.873Z,100769.13
2022-12-18T09:25:36.987Z,100670.22
2022-12-18T09:28:05.136Z,100625.06
2022-12-18T09:30:35.612Z,100465.06
2022-12-18T09:33:04.649Z,100824.53
2022-12-18T09:35:35.003Z,100592.47
2022-12-18T09:38:03.742Z,100779.16
2022-12-18T09:40:37.440Z,100492.22
2022-12-18T09:43:08.738Z,100735.38
2022-12-18T09:45:42.275Z,100651.34
2022-12-18T09:48:11.174Z,100433.69
2022-12-18T09:50:40.406Z,100849.97
2022-12-18T09:53:10.255Z,100772.06
2022-12-18T09:55:40.493Z,100508.78
2022-12-18T09:58:15.562Z,100500.75
2022-12-18T10:00:44.858Z,100683.50
2022-12-18T10:03:14.704Z,100783.53
2022-12-18T10:05:45.499Z,100795.78
2022-12-18T10:08:15.417Z,100631.91
2022-12-18T10:10:48.006Z,100767.59
2022-12-18T10:13:24.327Z,100359.75
2022-12-18T10:16:00.592Z,100663.13
2022-12-18T10:18:35.896Z,100718.19
2022-12-18T10:21:05.956Z,100653.44
2022-12-18T10:23:36.242Z,100782.59
2022-12-18T10:26:05.214Z,100406.75
2022-12-18T10:28:33.711Z,100727.84
2022-12-18T10:31:03.277Z,100501.53
2022-12-18T10:33:32.875Z,100643.06
2022-12-18T10:36:01.081Z,100609.63
2022-12-18T10:38:29.783Z,100661.34
2022-12-18T10:40:58.838Z,100588.63
2022-12-18T10:43:28.102Z,100468.06
2022-12-18T10:46:18.172Z,100673.75
2022-12-18T10:48:56.660Z,100517.09
2022-12-18T10:51:27.088Z,100809.56
2022-12-18T10:53:59.039Z,100469.03
2022-12-18T10:56:28.363Z,100643.47
2022-12-18T10:59:01.335Z,100420.38
2022-12-18T11:01:33.576Z,100417.88
2022-12-18T11:04:03.091Z,100641.66
2022-12-18T11:06:31.195Z,100625.09
2022-12-18T11:09:08.004Z,100590.03
2022-12-18T11:11:40.629Z,100294.66
2022-12-18T11:14:17.455Z,100518.56
2022-12-18T11:17:23.787Z,100619.81
2022-12-18T11:19:37.562Z,100596.66
2022-12-18T11:22:19.139Z,100696.47
2022-12-18T11:25:29.504Z,100562.25
2022-12-18T11:27:42.919Z,100353.47
2022-12-18T11:30:11.216Z,100530.22
2022-12-18T11:32:41.122Z,100686.19
2022-12-18T11:35:16.964Z,100682.84
2022-12-18T11:37:46.245Z,100606.47
2022-12-18T11:40:16.508Z,100449.53
2022-12-18T11:42:48.012Z,100623.78
2022-12-18T11:45:30.031Z,100440.72
2022-12-18T11:48:01.974Z,100484.56
2022-12-18T11:50:32.230Z,100552.06
2022-12-18T11:53:05.488Z,100571.81
2022-12-18T11:55:39.298Z,100418.38
2022-12-18T11:58:12.281Z,100360.88
2022-12-18T12:00:44.408Z,100641.06
2022-12-18T12:03:29.913Z,100430.41
2022-12-18T12:06:03.444Z,100699.81
2022-12-18T12:08:35.925Z,100560.69
2022-12-18T12:11:06.326Z,100663.00
2022-12-18T12:13:42.933Z,100289.69
2022-12-18T12:16:16.731Z,100646.47
2022-12-18T12:18:58.909Z,100467.28
2022-12-18T12:21:29.201Z,100338.28
2022-12-18T12:24:02.609Z,100574.59
2022-12-18T12:26:36.366Z,100107.19
2022-12-18T12:29:21.111Z,100278.22
2022-12-18T12:32:14.715Z,100275.34
2022-12-18T12:34:48.007Z,100626.97
2022-12-18T12:37:23.029Z,100578.69
2022-12-18T12:39:51.034Z,100618.75
2022-12-18T12:42:49.125Z,100395.34
2022-12-18T12:45:20.547Z,100521.03
2022-12-18T12:47:49.064Z,100533.69
2022-12-18T12:50:20.001Z,100489.19
2022-12-18T12:52:48.938Z,100615.06
2022-12-18T12:55:19.626Z,100474.47
2022-12-18T12:57:53.757Z,100461.34
2022-12-18T13:00:21.842Z,100438.72
2022-12-18T13:02:53.213Z,100768.06
2022-12-18T13:05:25.092Z,100347.03
2022-12-18T13:07:56.448Z,100447.50
2022-12-18T13:10:31.024Z,100392.97
2022-12-18T13:13:00.706Z,100395.66
2022-12-18T13:15:36.860Z,99966.47
2022-12-18T13:18:15.777Z,100522.22
2022-12-18T13:20:52.432Z,100534.41
2022-12-18T13:23:28.847Z,100606.19
2022-12-18T13:25:57.211Z,100612.28
2022-12-18T13:28:26.818Z,100528.38
2022-12-18T13:30:57.431Z,100588.50
2022-12-18T13:36:38.611Z,100465.63
2022-12-18T13:39:34.114Z,100672.03
2022-12-18T13:42:51.305Z,100615.78
2022-12-18T13:45:42.168Z,100539.72
2022-12-18T13:48:28.560Z,100373.03
2022-12-18T13:50:59.852Z,100243.16
2022-12-18T13:53:32.161Z,100626.94
2022-12-18T13:56:00.601Z,100463.44
2022-12-18T13:58:28.503Z,100548.31
2022-12-18T14:00:56.628Z,100484.19
2022-12-18T14:03:27.811Z,100291.66
2022-12-18T14:06:06.972Z,100236.09
2022-12-18T14:08:40.171Z,100641.66
2022-12-18T14:11:08.718Z,100312.09
2022-12-18T14:13:40.937Z,100212.34
2022-12-18T14:16:09.402Z,100494.38
2022-12-18T14:18:44.959Z,100284.66
2022-12-18T14:21:20.496Z,100102.25
2022-12-18T14:23:50.105Z,100327.34
2022-12-18T14:26:26.369Z,100405.28
2022-12-18T14:28:54.952Z,100135.91
2022-12-18T14:31:23.223Z,100346.75
2022-12-18T14:33:51.875Z,100373.97
2022-12-18T14:36:20.751Z,100587.16
2022-12-18T14:38:52.553Z,100019.84
2022-12-18T14:41:21.162Z,100428.16
2022-12-18T14:43:49.960Z,100398.78
2022-12-18T14:46:32.631Z,100314.38
2022-12-18T14:49:00.639Z,100411.03
2022-12-18T14:51:28.667Z,100581.22
2022-12-18T14:53:58.715Z,100355.19
2022-12-18T14:56:27.593Z,100416.78
2022-12-18T14:58:56.812Z,100261.25
2022-12-18T15:01:26.862Z,100254.47
2022-12-18T15:03:57.720Z,100534.84
2022-12-18T15:06:31.581Z,100369.78
2022-12-18T15:09:01.567Z,100262.84
2022-12-18T15:11:31.047Z,100308.69
2022-12-18T15:14:00.388Z,100273.66
2022-12-18T15:16:28.805Z,100390.94
2022-12-18T15:18:57.170Z,100239.91
2022-12-18T15:21:25.277Z,100340.53
2022-12-18T15:23:53.522Z,100244.88
2022-12-18T15:26:23.592Z,100428.44
2022-12-18T15:28:51.889Z,100326.94
2022-12-18T15:31:25.026Z,100151.50
2022-12-18T15:34:13.595Z,100458.59
2022-12-18T15:36:41.600Z,100022.44
2022-12-18T15:39:13.031Z,100510.78
2022-12-18T15:42:02.478Z,100415.09
2022-12-18T15:47:30.975Z,100448.13
2022-12-18T15:49:59.055Z,100218.63
2022-12-18T15:52:27.719Z,100025.44
2022-12-18T15:55:16.042Z,100170.97
2022-12-18T15:57:45.302Z,100499.16
2022-12-18T16:00:14.919Z,100219.97
2022-12-18T16:02:43.892Z,100161.63
2022-12-18T16:05:13.683Z,100303.66
2022-12-18T16:07:41.541Z,100295.72
2022-12-18T16:10:10.066Z,100540.97
2022-12-18T16:12:38.345Z,100195.88
2022-12-18T16:15:09.453Z,100250.59
2022-12-18T16:17:37.675Z,100019.75
2022-12-18T16:20:06.205Z,100347.19
2022-12-18T16:22:34.022Z,100411.13
2022-12-18T16:25:01.893Z,100257.13
2022-12-18T16:27:29.601Z,100346.63
2022-12-18T16:29:57.416Z,100289.22
2022-12-18T16:32:26.671Z,100427.94
2022-12-18T16:34:54.559Z,100347.50
2022-12-18T16:37:22.388Z,100457.47
2022-12-18T16:39:50.287Z,100662.22
2022-12-18T16:42:24.058Z,100377.03
2022-12-18T16:44:51.877Z,100440.06
2022-12-18T16:47:19.879Z,100451.50
2022-12-18T16:49:51.817Z,100490.72
2022-12-18T16:52:20.005Z,100430.44
2022-12-18T16:54:49.094Z,100436.06
2022-12-18T16:57:18.678Z,100371.16
2022-12-18T16:59:46.930Z,100489.63
2022-12-18T17:02:18.063Z,100348.53
2022-12-18T17:04:49.414Z,100574.34
2022-12-18T17:07:17.669Z,100588.19
2022-12-18T17:09:45.502Z,100169.81
2022-12-18T17:12:14.648Z,100504.34
2022-12-18T17:14:42.419Z,100492.72
2022-12-18T17:17:25.898Z,100397.66
2022-12-18T17:19:55.600Z,100161.59
2022-12-18T17:22:24.787Z,100356.69
2022-12-18T17:24:53.600Z,100539.91
2022-12-18T17:27:21.613Z,100476.53
2022-12-18T17:29:49.531Z,100204.31
2022-12-18T17:32:17.710Z,100457.69
2022-12-18T17:34:45.849Z,100390.34
2022-12-18T17:37:15.644Z,100221.81
2022-12-18T17:39:43.811Z,100165.41
2022-12-18T17:42:15.250Z,100243.91
2022-12-18T17:44:45.736Z,100508.06
2022-12-18T17:47:14.137Z,100292.56
2022-12-18T17:49:42.068Z,100157.81
2022-12-18T17:52:09.981Z,100332.72
2022-12-18T17:54:42.518Z,100403.66
2022-12-18T17:57:10.777Z,100249.59
2022-12-18T17:59:39.641Z,100616.63
2022-12-18T18:02:07.740Z,100347.13
2022-12-18T18:04:36.621Z,100419.03
2022-12-18T18:07:04.490Z,100527.25
2022-12-18T18:09:32.752Z,100496.16
2022-12-18T18:12:19.621Z,100480.34
2022-12-18T18:14:47.613Z,100398.22
2022-12-18T18:17:15.439Z,100283.97
2022-12-18T18:19:48.628Z,100136.50
2022-12-18T18:22:18.031Z,100300.56
2022-12-18T18:24:46.796Z,100256.13
2022-12-18T18:27:16.389Z,100430.09
2022-12-18T18:29:44.769Z,100519.31
2022-12-18T18:32:12.613Z,100293.41
2022-12-18T18:34:40.570Z,100113.88
2022-12-18T18:37:08.372Z,100517.63
2022-12-18T18:39:36.314Z,100176.75
2022-12-18T18:42:04.183Z,100384.63
2022-12-18T18:44:33.373Z,100536.34
2022-12-18T18:47:01.325Z,100610.00
2022-12-18T18:49:31.898Z,100494.13
2022-12-18T18:52:00.255Z,100372.03
2022-12-18T18:54:28.190Z,100510.41
2022-12-18T18:59:46.053Z,100459.84
2022-12-18T19:02:14.375Z,100545.13
2022-12-18T19:04:46.740Z,100488.47
2022-12-18T19:07:18.509Z,100370.56
2022-12-18T19:09:57.758Z,100418.06
2022-12-18T19:12:46.684Z,100370.69
2022-12-18T19:15:18.456Z,100423.31
2022-12-18T19:17:47.571Z,100539.50
2022-12-18T19:20:15.963Z,100118.59
2022-12-18T19:22:44.772Z,100190.00
2022-12-18T19:25:19.861Z,100411.38
2022-12-18T19:27:47.657Z,100344.44
2022-12-18T19:30:16.978Z,100267.09
2022-12-18T19:32:45.182Z,100376.28
2022-12-18T19:35:13.756Z,100361.63
2022-12-18T19:37:41.756Z,100198.47
2022-12-18T19:40:12.575Z,100156.06
2022-12-18T19:42:40.670Z,100430.00
2022-12-18T19:45:26.783Z,100539.00
2022-12-18T19:47:57.508Z,100267.78
2022-12-18T19:50:33.328Z,100325.72
2022-12-18T19:53:02.231Z,100477.84
2022-12-18T19:55:33.460Z,100253.78
2022-12-18T19:58:01.220Z,100366.38
2022-12-18T20:00:35.265Z,100284.34
2022-12-18T20:03:12.866Z,100463.94
2022-12-18T20:05:46.342Z,100211.31
2022-12-18T20:08:14.130Z,100297.75
2022-12-18T20:10:44.754Z,100499.00
2022-12-18T20:13:12.618Z,100534.47
2022-12-18T20:15:45.462Z,100518.41
2022-12-18T20:18:13.481Z,100359.28
2022-12-18T20:20:41.347Z,100403.28
2022-12-18T20:23:09.675Z,100302.09
2022-12-18T20:25:38.968Z,100337.63
2022-12-18T20:28:07.137Z,100539.84
2022-12-18T20:30:35.187Z,100473.34
2022-12-18T20:33:05.125Z,100168.91
2022-12-18T20:35:33.356Z,100382.94
2022-12-18T20:38:01.496Z,100512.91
2022-12-18T20:40:29.998Z,100388.25
2022-12-18T20:42:57.839Z,100536.09
2022-12-18T20:45:25.528Z,100453.56
2022-12-18T20:47:54.951Z,100384.38
2022-12-18T20:50:24.129Z,100197.78
2022-12-18T20:52:52.039Z,100281.25
2022-12-18T20:55:20.555Z,100139.88
2022-12-18T20:57:49.678Z,100341.97
2022-12-18T21:00:20.040Z,100033.59
2022-12-18T21:02:49.336Z,100546.03
2022-12-18T21:05:17.653Z,100313.59
2022-12-18T21:07:47.261Z,100312.31
2022-12-18T21:10:15.876Z,100511.59
2022-12-18T21:12:58.724Z,100240.59
2022-12-18T21:15:31.452Z,100494.16
2022-12-18T21:17:59.736Z,100477.69
2022-12-18T21:20:27.938Z,100437.41
2022-12-18T21:23:13.262Z,100368.59
2022-12-18T21:25:45.677Z,100590.94
2022-12-18T21:28:14.787Z,100023.44
2022-12-18T21:30:42.737Z,100563.13
2022-12-18T21:33:10.583Z,100360.97
2022-12-18T21:35:41.312Z,100384.16
2022-12-18T21:38:10.530Z,100646.75
2022-12-18T21:40:40.111Z,100236.72
2022-12-18T21:43:25.946Z,100412.72
2022-12-18T21:45:53.879Z,100418.91
2022-12-18T21:48:22.209Z,100331.47
2022-12-18T21:50:50.473Z,100261.03
2022-12-18T21:53:19.695Z,100293.03
2022-12-18T21:55:50.488Z,100302.28
2022-12-18T21:58:18.635Z,99925.56
2022-12-18T22:00:49.427Z,100485.13
2022-12-18T22:03:19.351Z,100358.03
2022-12-18T22:06:14.170Z,100472.38
2022-12-18T22:08:44.161Z,100201.91
2022-12-18T22:11:13.729Z,100387.31
2022-12-18T22:13:42.414Z,100371.78
2022-12-18T22:16:10.738Z,100311.13
2022-12-18T22:18:38.833Z,100248.34
2022-12-18T22:21:07.102Z,100315.31
2022-12-18T22:23:36.247Z,100281.19
2022-12-18T22:26:05.665Z,100438.59
2022-12-18T22:28:50.921Z,100513.56
2022-12-18T22:31:18.909Z,100070.97
2022-12-18T22:33:47.175Z,100354.69
2022-12-18T22:36:15.251Z,100395.63
2022-12-18T22:38:47.682Z,100430.28
2022-12-18T22:41:17.850Z,99958.81
2022-12-18T22:43:45.917Z,100098.16
2022-12-18T22:46:13.892Z,100233.78
2022-12-18T22:48:41.625Z,100275.91
2022-12-18T22:51:10.354Z,100169.31
2022-12-18T22:53:38.250Z,100123.34
2022-12-18T22:56:07.175Z,100244.25
2022-12-18T22:58:36.392Z,100106.44
2022-12-18T23:01:04.497Z,100238.91
2022-12-18T23:03:33.449Z,100316.16
2022-12-18T23:06:05.942Z,100215.19
2022-12-18T23:08:33.966Z,100241.16
2022-12-18T23:11:01.938Z,100282.06
2022-12-18T23:13:29.757Z,100413.84
2022-12-18T23:15:59.047Z,100215.00
2022-12-18T23:18:26.876Z,100278.50
2022-12-18T23:20:54.580Z,100424.72
2022-12-18T23:23:23.887Z,100038.66
2022-12-18T23:25:51.724Z,100292.50
2022-12-18T23:28:19.698Z,99962.78
2022-12-18T23:30:47.518Z,100177.13
2022-12-18T23:33:16.670Z,100353.78
2022-12-18T23:35:44.628Z,100499.78
2022-12-18T23:38:12.494Z,100049.44
2022-12-18T23:40:40.323Z,100340.16
2022-12-18T23:43:08.177Z,100069.78
2022-12-18T23:45:38.759Z,100038.22
2022-12-18T23:48:06.685Z,100388.38
2022-12-18T23:50:37.361Z,100337.47
2022-12-18T23:53:05.900Z,99959.84
2022-12-18T23:55:35.197Z,100194.47
2022-12-18T23:58:03.084Z,100268.25
